MAPA DE AEROPUERTO

INFORMACIÓN METAR y TAF

METAR FOR LEPP
ADDS - METARS form results

(1153 UTC 27 November 2021)
Data provider http://aviationweather.gov/metar/data/
 
METAR text: LEPP 271148Z 31004KT 260V350 4000 -SHRASN SCT009 SCT024CB OVC027 02/01 Q1005
Conditions at: LEPP (PAMPLONA/NOAIN , ES) observed 1148 UTC 27 November 2021
Temperature: 2.0°C (36°F)
Dewpoint: 1.0°C (34°F) [RH = 93%]
Pressure (altimeter): 29.68 inches Hg (1005.0 mb)
Winds: from the NW (310 degrees) at 5 MPH (4 knots; 2.1 m/s)
Visibility: 2.49 miles (4.01 km)
Ceiling: 2700 feet AGL
Clouds: scattered clouds at 900 feet AGL
scattered clouds at 2400 feet AGL
overcast cloud deck at 2700 feet AGL
Weather: -SHRA -SHSN  (light rain showers, light snow showers)

METAR text: LEPP 271136Z 36004KT 240V050 3500 SHRASN VCTS SCT008 SCT024CB OVC027 02/01 Q1004 RESHRA
Conditions at: LEPP (PAMPLONA/NOAIN , ES) observed 1136 UTC 27 November 2021
Temperature: 2.0°C (36°F)
Dewpoint: 1.0°C (34°F) [RH = 93%]
Pressure (altimeter): 29.65 inches Hg (1004.0 mb)
Winds: from the N (360 degrees) at 5 MPH (4 knots; 2.1 m/s)
Visibility: 2.17 miles (3.49 km)
Ceiling: 2700 feet AGL
Clouds: scattered clouds at 800 feet AGL
scattered clouds at 2400 feet AGL
overcast cloud deck at 2700 feet AGL
Weather: SHRA SHSN VCTS  (rain showers, snow showers, thunderstorm in vicinity)

METAR text: LEPP 271130Z 36006KT 340V040 3500 SHRA VCTS SCT008 SCT024CB OVC027 02/01 Q1005
Conditions at: LEPP (PAMPLONA/NOAIN , ES) observed 1130 UTC 27 November 2021
Temperature: 2.0°C (36°F)
Dewpoint: 1.0°C (34°F) [RH = 93%]
Pressure (altimeter): 29.68 inches Hg (1005.0 mb)
Winds: from the N (360 degrees) at 7 MPH (6 knots; 3.1 m/s)
Visibility: 2.17 miles (3.49 km)
Ceiling: 2700 feet AGL
Clouds: scattered clouds at 800 feet AGL
scattered clouds at 2400 feet AGL
overcast cloud deck at 2700 feet AGL
Weather: SHRA VCTS  (rain showers, thunderstorm in vicinity)

METAR text: LEPP 271109Z 33009KT 280V010 4000 SHRA SCT008 BKN024TCU OVC031 03/01 Q1005
Conditions at: LEPP (PAMPLONA/NOAIN , ES) observed 1109 UTC 27 November 2021
Temperature: 3.0°C (37°F)
Dewpoint: 1.0°C (34°F) [RH = 87%]
Pressure (altimeter): 29.68 inches Hg (1005.0 mb)
Winds: from the NNW (330 degrees) at 10 MPH (9 knots; 4.6 m/s)
Visibility: 2.49 miles (4.01 km)
Ceiling: 2400 feet AGL
Clouds: scattered clouds at 800 feet AGL
broken clouds at 2400 feet AGL
overcast cloud deck at 3100 feet AGL
Weather: SHRA  (rain showers)

METAR text: LEPP 271105Z 32009KT 270V360 6000 SHRA SCT008 BKN024TCU OVC031 03/01 Q1005
Conditions at: LEPP (PAMPLONA/NOAIN , ES) observed 1105 UTC 27 November 2021
Temperature: 3.0°C (37°F)
Dewpoint: 1.0°C (34°F) [RH = 87%]
Pressure (altimeter): 29.68 inches Hg (1005.0 mb)
Winds: from the NW (320 degrees) at 10 MPH (9 knots; 4.6 m/s)
Visibility: 4 miles ( 6 km)
Ceiling: 2400 feet AGL
Clouds: scattered clouds at 800 feet AGL
broken clouds at 2400 feet AGL
overcast cloud deck at 3100 feet AGL
Weather: SHRA  (rain showers)

METAR text: LEPP 271100Z 33008KT 270V010 9999 -RA FEW008 SCT017 OVC031 03/02 Q1005
Conditions at: LEPP (PAMPLONA/NOAIN , ES) observed 1100 UTC 27 November 2021
Temperature: 3.0°C (37°F)
Dewpoint: 2.0°C (36°F) [RH = 93%]
Pressure (altimeter): 29.68 inches Hg (1005.0 mb)
Winds: from the NNW (330 degrees) at 9 MPH (8 knots; 4.1 m/s)
Visibility: 6 or more miles (10+ km)
Ceiling: 3100 feet AGL
Clouds: few clouds at 800 feet AGL
scattered clouds at 1700 feet AGL
overcast cloud deck at 3100 feet AGL
Weather: -RA  (light rain)

Forecast for: LEPP (PAMPLONA/NOAIN , ES)
Text: TAF LEPP 270800Z 2709/2809 30009KT 9999 SCT020 BKN030 TX04/2713Z TN00/2722Z
Forecast period: 0900 UTC 27 November 2021 to 0900 UTC 28 November 2021
Forecast type: FROM: standard forecast or significant change
Winds: from the WNW (300 degrees) at 10 MPH (9 knots; 4.6 m/s)
Visibility: 6 or more miles (10+ km)
Ceiling: 3000 feet AGL
Clouds: scattered clouds at 2000 feet AGL
broken clouds at 3000 feet AGL
Weather: no significant weather forecast for this period
Text: TEMPO 2709/2718 3000 RA SHRA BKN010 SCT030TCU
Forecast period: 0900 to 1800 UTC 27 November 2021
Forecast type: TEMPORARY: The following changes expected for less than half the time period
Visibility: 1.86 miles (2.99 km)
Ceiling: 1000 feet AGL
Clouds: broken clouds at 1000 feet AGL
scattered clouds at 3000 feet AGL
Weather: RA SHRA  (moderate rain, rain showers)
Text: PROB40
Forecast period: 0900 UTC 27 November 2021 to 0900 UTC 28 November 2021
Forecast type: TEMPORARY: The following changes expected for less than half the time period
Visibility: 0.93 miles (1.50 km)
Ceiling: 500 feet AGL
Clouds: broken clouds at 500 feet AGL
scattered clouds at 3000 feet AGL
Weather: TS SHGR  (thunderstorm, hail showers)
Text: TEMPO 2709/2809 1500 TS SHGR BKN005 SCT030CB
Forecast period: 1200 to 1500 UTC 27 November 2021
Forecast type: TEMPORARY: The following changes expected for less than half the time period
Visibility: 0.50 miles (0.80 km)
Ceiling: 200 feet AGL
Clouds: broken clouds at 200 feet AGL
Weather: SN  (moderate snow)
Text: PROB30
Forecast period: 1500 UTC 27 November 2021 to 0300 UTC 28 November 2021
Forecast type: TEMPORARY: The following changes expected for less than half the time period
Visibility: 0.50 miles (0.80 km)
Ceiling: 200 feet AGL
Clouds: broken clouds at 200 feet AGL
broken clouds at 500 feet AGL
Weather: SN  (moderate snow)
Text: TEMPO 2712/2715 0800 SN BKN002
Forecast period: 1800 UTC 27 November 2021 to 0300 UTC 28 November 2021
Forecast type: TEMPORARY: The following changes expected for less than half the time period
Visibility: 1.86 miles (2.99 km)
Ceiling: 1000 feet AGL
Clouds: broken clouds at 1000 feet AGL
Weather: SN  (moderate snow)